Time;durP1;ratioP1;P1;durP2;ratioP2;P2;SDS_P1;SDS_P2;PMS_P1;PMS_P2;Temp;Humidity;BMP_temperature;BMP_pressure;BME280_temperature;BME280_humidity;BME280_pressure;Samples;Min_cycle;Max_cycle;Signal;HPM_P1;HPM_P2
2022/10/29 00:02:21;;;;;;;;;15.00;14.33;;;;;19.42;70.25;101555.19;4978173;28;46652;-71
2022/10/29 00:04:46;;;;;;;;;18.00;14.00;;;;;19.54;70.23;101569.97;4978343;28;61724;-69
2022/10/29 00:07:12;;;;;;;;;18.00;14.67;;;;;19.54;70.29;101574.53;4978975;28;45476;-73
2022/10/29 00:09:37;;;;;;;;;15.33;13.33;;;;;19.53;69.98;101568.25;4978710;28;45390;-72
2022/10/29 00:12:02;;;;;;;;;18.67;15.33;;;;;19.34;70.02;101556.13;4976208;28;45785;-71
2022/10/29 00:14:28;;;;;;;;;15.67;15.00;;;;;19.47;69.68;101547.44;4978104;28;45351;-70
2022/10/29 00:16:55;;;;;;;;;13.33;12.33;;;;;19.39;69.84;101520.50;4978149;28;45462;-73
2022/10/29 00:19:20;;;;;;;;;16.00;13.33;;;;;19.13;70.12;101492.09;4993112;28;45548;-73
2022/10/29 00:21:45;;;;;;;;;16.00;15.00;;;;;19.45;70.14;101538.69;4978016;28;45810;-71
2022/10/29 00:24:11;;;;;;;;;16.33;13.00;;;;;19.43;70.30;101535.34;4978332;28;45297;-71
2022/10/29 00:26:36;;;;;;;;;18.33;17.00;;;;;19.31;70.42;101526.00;4976520;28;45345;-71
2022/10/29 00:29:01;;;;;;;;;14.00;14.00;;;;;19.25;70.45;101522.19;4977845;28;45612;-72
2022/10/29 00:31:27;;;;;;;;;23.00;16.00;;;;;19.27;70.88;101547.09;4977453;28;45436;-71
2022/10/29 00:33:53;;;;;;;;;16.33;15.33;;;;;19.25;70.60;101543.75;4977380;28;45519;-71
2022/10/29 00:36:26;;;;;;;;;14.00;11.67;;;;;19.17;71.03;101524.09;4977471;28;45271;-71
2022/10/29 00:38:51;;;;;;;;;16.33;15.33;;;;;19.22;70.74;101537.84;4977613;28;45228;-71
2022/10/29 00:41:20;;;;;;;;;19.00;15.33;;;;;19.23;70.73;101518.00;4977144;28;46778;-70
2022/10/29 00:43:48;;;;;;;;;14.67;14.67;;;;;18.76;70.77;101468.66;4979698;28;45305;-72
2022/10/29 00:46:34;;;;;;;;;14.33;14.33;;;;;19.11;71.03;101520.25;4980813;28;45234;-72
2022/10/29 00:49:02;;;;;;;;;15.33;13.33;;;;;19.11;70.92;101531.03;4981218;28;45558;-72
2022/10/29 00:51:29;;;;;;;;;15.67;14.00;;;;;18.75;71.07;101468.84;4979249;28;47551;-72
2022/10/29 00:54:01;;;;;;;;;13.67;13.67;;;;;19.02;71.02;101506.03;4980875;28;45341;-72
2022/10/29 00:56:30;;;;;;;;;15.00;15.00;;;;;19.03;71.18;101512.25;4980762;28;45385;-72
2022/10/29 00:58:56;;;;;;;;;12.67;12.33;;;;;19.00;70.75;101507.19;4980945;28;45870;-72
2022/10/29 01:01:21;;;;;;;;;15.33;14.33;;;;;18.98;70.80;101498.47;4980598;28;45734;-71
2022/10/29 01:03:47;;;;;;;;;13.00;13.00;;;;;18.50;70.90;101393.59;4980964;28;45510;-72
2022/10/29 01:06:13;;;;;;;;;15.00;12.33;;;;;19.02;70.71;101478.22;4980407;28;45499;-71
2022/10/29 01:08:39;;;;;;;;;14.67;13.33;;;;;18.97;70.83;101492.22;4980918;28;45306;-72
2022/10/29 01:11:23;;;;;;;;;17.67;14.33;;;;;18.94;71.02;101487.22;4980303;28;46250;-71
2022/10/29 01:13:59;;;;;;;;;13.33;13.33;;;;;18.20;71.20;101354.09;4980408;28;45283;-72
2022/10/29 01:16:51;;;;;;;;;14.67;12.67;;;;;18.88;71.16;101476.31;4980640;28;45339;-72
2022/10/29 01:19:23;;;;;;;;;12.67;10.67;;;;;18.87;71.02;101464.72;4980701;28;45426;-74
2022/10/29 01:22:19;;;;;;;;;14.00;14.00;;;;;18.80;70.89;101455.66;4980052;28;45961;-72
2022/10/29 01:24:57;;;;;;;;;14.00;13.00;;;;;18.16;70.87;101352.78;4979572;28;45187;-70
2022/10/29 01:27:50;;;;;;;;;13.00;10.67;;;;;18.84;71.03;101470.47;4980130;28;45579;-72
2022/10/29 01:30:34;;;;;;;;;14.67;14.33;;;;;18.70;70.95;101455.06;4978984;28;45295;-71
2022/10/29 01:33:14;;;;;;;;;17.33;13.67;;;;;18.44;70.97;101404.25;4979954;28;45839;-71
2022/10/29 01:35:50;;;;;;;;;18.67;16.33;;;;;18.59;70.83;101418.59;4980293;28;45359;-71
2022/10/29 01:38:21;;;;;;;;;17.33;17.33;;;;;18.79;71.05;101457.50;4980233;28;45259;-71
2022/10/29 01:41:07;;;;;;;;;20.33;14.00;;;;;18.77;70.99;101448.78;4980222;28;45478;-72
2022/10/29 01:43:41;;;;;;;;;18.67;15.33;;;;;18.76;71.48;101451.66;4978373;28;48622;-71
2022/10/29 01:46:22;;;;;;;;;17.67;16.67;;;;;18.54;71.20;101420.97;4979588;28;45455;-70
2022/10/29 01:48:53;;;;;;;;;18.67;15.00;;;;;18.76;71.41;101444.41;4980037;28;45505;-71
2022/10/29 01:51:25;;;;;;;;;12.67;12.67;;;;;18.75;71.41;101418.50;4980059;28;45465;-70
2022/10/29 01:53:51;;;;;;;;;14.33;14.00;;;;;18.57;71.35;101388.31;4977371;28;48544;-71
2022/10/29 01:56:16;;;;;;;;;18.67;15.67;;;;;18.68;71.44;101406.78;4979568;28;45253;-71
2022/10/29 01:58:48;;;;;;;;;15.00;13.33;;;;;18.60;71.30;101409.47;4979697;28;45559;-72
2022/10/29 02:01:49;;;;;;;;;20.67;15.67;;;;;18.68;71.57;101417.56;4979806;28;45429;-73
2022/10/29 02:04:39;;;;;;;;;16.67;15.67;;;;;18.50;71.72;101387.38;4970716;28;46858;-70
2022/10/29 02:07:30;;;;;;;;;17.33;14.67;;;;;17.98;71.45;101284.97;4994464;28;45491;-71
2022/10/29 02:10:22;;;;;;;;;13.67;13.33;;;;;18.55;71.57;101377.72;4979902;28;45404;-70
2022/10/29 02:12:51;;;;;;;;;15.00;13.33;;;;;18.26;71.59;101333.72;4979669;28;45568;-72
2022/10/29 02:15:38;;;;;;;;;13.33;13.33;;;;;18.52;71.70;101375.38;4979221;28;45976;-69
2022/10/29 02:18:06;;;;;;;;;13.00;12.00;;;;;18.49;72.11;101359.59;4979425;28;45470;-69
2022/10/29 02:20:32;;;;;;;;;18.33;17.00;;;;;17.26;72.05;101162.41;4979358;28;45500;-72
2022/10/29 02:22:58;;;;;;;;;12.00;12.00;;;;;18.49;72.01;101375.75;4979530;28;45448;-72
2022/10/29 02:25:23;;;;;;;;;14.67;14.67;;;;;18.50;71.72;101361.28;4978781;28;46392;-71
2022/10/29 02:27:49;;;;;;;;;21.33;19.00;;;;;18.52;71.68;101375.38;4979196;28;45378;-71
2022/10/29 02:30:15;;;;;;;;;13.00;11.00;;;;;18.38;71.34;101360.00;4977934;28;45223;-71
2022/10/29 02:32:40;;;;;;;;;11.67;11.67;;;;;18.57;71.11;101361.38;4979549;28;46118;-71
2022/10/29 02:35:06;;;;;;;;;13.00;12.33;;;;;18.59;70.85;101353.94;4978931;28;45864;-71
2022/10/29 02:37:31;;;;;;;;;15.00;12.67;;;;;18.19;70.78;101287.81;4978781;28;45446;-71
2022/10/29 02:39:57;;;;;;;;;17.67;14.00;;;;;18.27;70.71;101297.69;4978766;28;50442;-70
2022/10/29 02:42:22;;;;;;;;;12.67;12.00;;;;;18.68;70.30;101358.28;4994588;28;45430;-70
2022/10/29 02:44:47;;;;;;;;;10.67;10.67;;;;;18.25;70.14;101281.75;4978689;28;53745;-71
2022/10/29 02:47:13;;;;;;;;;14.67;12.33;;;;;18.70;70.01;101340.09;4994161;28;45248;-70
2022/10/29 02:49:38;;;;;;;;;12.00;12.00;;;;;18.62;70.00;101336.59;4979155;28;45409;-70
2022/10/29 02:52:03;;;;;;;;;13.67;11.00;;;;;18.51;69.75;101303.69;4979358;28;45464;-72
2022/10/29 02:54:29;;;;;;;;;13.33;13.00;;;;;18.73;69.43;101341.59;4979122;28;47188;-69
2022/10/29 02:56:54;;;;;;;;;15.00;13.33;;;;;18.42;69.27;101291.34;4979070;28;45219;-69
2022/10/29 02:59:19;;;;;;;;;12.67;11.67;;;;;18.52;69.33;101310.75;4979432;28;45300;-70
2022/10/29 03:01:45;;;;;;;;;13.33;12.00;;;;;18.05;69.27;101222.19;4978811;28;45621;-71
2022/10/29 03:04:10;;;;;;;;;11.00;9.33;;;;;18.69;69.14;101316.03;4993151;28;59001;-70
2022/10/29 03:06:36;;;;;;;;;10.67;10.67;;;;;18.20;69.32;101239.19;4978214;28;45279;-71
2022/10/29 03:09:02;;;;;;;;;12.33;12.00;;;;;18.36;69.21;101262.44;4979022;28;45368;-71
2022/10/29 03:11:28;;;;;;;;;10.00;10.00;;;;;18.44;68.92;101283.94;4979145;28;45457;-71
2022/10/29 03:13:53;;;;;;;;;14.33;11.00;;;;;18.33;68.97;101257.44;4978690;28;46606;-72
2022/10/29 03:16:18;;;;;;;;;18.67;13.00;;;;;18.67;68.90;101310.00;4978066;28;58064;-69
2022/10/29 03:18:44;;;;;;;;;13.33;13.33;;;;;18.68;68.94;101311.66;4979025;28;45367;-72
2022/10/29 03:21:09;;;;;;;;;17.00;13.33;;;;;18.52;68.89;101300.00;4979089;28;45403;-71
2022/10/29 03:23:34;;;;;;;;;13.33;11.00;;;;;18.69;68.91;101322.25;4993312;28;48332;-73
2022/10/29 03:26:00;;;;;;;;;12.33;11.67;;;;;18.71;68.90;101340.94;4978505;28;45360;-72
2022/10/29 03:28:29;;;;;;;;;13.00;12.33;;;;;16.47;68.85;100961.28;4978480;28;45377;-70
2022/10/29 03:30:56;;;;;;;;;13.00;11.33;;;;;18.53;68.92;101300.81;4978926;28;45212;-70
2022/10/29 03:33:24;;;;;;;;;14.00;11.33;;;;;18.40;68.83;101285.28;4978208;28;46423;-71
2022/10/29 03:35:55;;;;;;;;;14.00;11.00;;;;;18.48;69.12;101304.06;4977920;28;45487;-70
2022/10/29 03:38:20;;;;;;;;;11.67;11.33;;;;;18.50;68.80;101307.41;4978082;28;45524;-71
2022/10/29 03:40:45;;;;;;;;;12.00;12.00;;;;;18.55;68.75;101325.72;4977054;28;45656;-70
2022/10/29 03:43:11;;;;;;;;;12.67;12.67;;;;;18.56;68.79;101324.69;4977807;28;53020;-72
2022/10/29 03:45:36;;;;;;;;;10.00;10.00;;;;;18.49;69.20;101321.06;4978065;28;45255;-70
2022/10/29 03:48:03;;;;;;;;;14.00;11.00;;;;;18.58;69.01;101313.75;4978207;28;45390;-72
2022/10/29 03:50:29;;;;;;;;;16.00;14.00;;;;;18.37;69.09;101300.97;4978233;28;45504;-70
2022/10/29 03:52:54;;;;;;;;;11.00;11.00;;;;;18.47;68.99;101333.88;4976086;28;60818;-70
2022/10/29 03:55:19;;;;;;;;;12.67;12.00;;;;;18.48;68.89;101328.31;4976489;28;45835;-71
2022/10/29 03:57:44;;;;;;;;;13.00;12.67;;;;;18.54;69.19;101322.19;4978019;28;45529;-71
2022/10/29 04:00:10;;;;;;;;;14.00;11.67;;;;;18.33;68.84;101257.44;4977971;28;45369;-71
2022/10/29 04:02:36;;;;;;;;;15.00;11.33;;;;;18.45;68.70;101282.91;4977968;28;46274;-71
2022/10/29 04:05:01;;;;;;;;;13.67;11.67;;;;;17.97;68.99;101206.09;4978506;28;45428;-70
2022/10/29 04:07:26;;;;;;;;;12.67;11.33;;;;;18.35;69.16;101276.91;4977930;28;45664;-71
2022/10/29 04:09:52;;;;;;;;;14.00;12.00;;;;;18.22;69.11;101268.66;4977906;28;49217;-71
2022/10/29 04:12:17;;;;;;;;;12.33;10.00;;;;;18.39;69.33;101302.44;4977770;28;46375;-71
2022/10/29 04:14:44;;;;;;;;;15.00;14.33;;;;;18.38;68.88;101303.47;4978062;28;45377;-71
2022/10/29 04:17:11;;;;;;;;;12.67;12.00;;;;;18.57;68.99;101337.13;4976684;28;45171;-71
2022/10/29 04:19:36;;;;;;;;;13.00;10.67;;;;;18.45;68.98;101309.81;4977779;28;45473;-72
2022/10/29 04:22:02;;;;;;;;;15.33;13.00;;;;;18.14;68.88;101271.38;4975906;28;48424;-72
2022/10/29 04:24:27;;;;;;;;;11.33;11.33;;;;;18.34;68.77;101318.31;4976132;28;45276;-70
2022/10/29 04:26:52;;;;;;;;;15.33;13.00;;;;;18.50;69.07;101338.91;4975908;28;52615;-71
2022/10/29 04:29:17;;;;;;;;;13.33;13.33;;;;;18.48;68.89;101339.06;4977776;28;45279;-73
2022/10/29 04:31:43;;;;;;;;;14.33;12.33;;;;;18.47;69.13;101333.88;4977433;28;46100;-70
2022/10/29 04:34:08;;;;;;;;;13.67;11.00;;;;;18.31;69.15;101291.78;4992370;28;45927;-69
2022/10/29 04:36:34;;;;;;;;;14.33;11.00;;;;;18.41;68.83;101316.56;4992643;28;45495;-70
2022/10/29 04:38:59;;;;;;;;;12.33;11.00;;;;;18.33;68.55;101300.50;4977946;28;45342;-70
2022/10/29 04:41:24;;;;;;;;;15.33;10.67;;;;;18.44;68.58;101294.69;4977178;28;46847;-70
2022/10/29 04:43:50;;;;;;;;;13.33;12.00;;;;;18.44;68.61;101307.31;4977242;28;45353;-71
2022/10/29 04:46:15;;;;;;;;;13.67;13.33;;;;;18.36;69.06;101288.53;4977422;28;45576;-70
2022/10/29 04:48:40;;;;;;;;;17.67;14.00;;;;;18.25;69.04;101292.50;4977701;28;45303;-71
2022/10/29 04:51:06;;;;;;;;;13.67;10.33;;;;;18.42;69.14;101312.88;4976476;28;64594;-70
2022/10/29 04:53:31;;;;;;;;;15.33;11.67;;;;;18.41;68.90;101303.09;4977031;28;45414;-72
2022/10/29 04:56:02;;;;;;;;;18.33;13.67;;;;;18.23;68.77;101263.06;4977178;28;45440;-72
2022/10/29 04:58:27;;;;;;;;;12.00;10.67;;;;;18.29;68.79;101284.91;4975799;28;45304;-70
2022/10/29 05:00:53;;;;;;;;;16.33;12.67;;;;;18.45;68.74;101309.81;4975334;28;48224;-71
2022/10/29 05:03:18;;;;;;;;;9.67;7.00;;;;;18.43;68.68;101290.34;4977113;28;45371;-70
2022/10/29 05:05:44;;;;;;;;;14.00;13.67;;;;;18.39;68.67;101304.31;4992164;28;45364;-69
2022/10/29 05:08:10;;;;;;;;;16.33;11.00;;;;;18.38;68.73;101279.25;4977014;28;45420;-70
2022/10/29 05:10:38;;;;;;;;;13.00;11.67;;;;;18.27;68.43;101257.31;4976869;28;45533;-70
2022/10/29 05:13:09;;;;;;;;;12.00;11.33;;;;;18.44;68.74;101286.63;4976885;28;45475;-71
2022/10/29 05:15:35;;;;;;;;;13.33;11.00;;;;;18.44;68.57;101308.16;4976931;28;45462;-71
2022/10/29 05:18:01;;;;;;;;;10.33;10.33;;;;;18.43;68.59;101284.09;4991857;28;45545;-70
2022/10/29 05:20:27;;;;;;;;;13.00;12.00;;;;;18.23;68.58;101248.78;4975711;28;48860;-71
2022/10/29 05:23:00;;;;;;;;;15.33;13.00;;;;;18.45;68.42;101285.59;4976908;28;45499;-73
2022/10/29 05:25:27;;;;;;;;;13.33;11.33;;;;;17.97;68.66;101229.47;4977038;28;45371;-71
2022/10/29 05:28:03;;;;;;;;;14.00;13.33;;;;;18.41;68.50;101280.72;4977350;28;45615;-71
2022/10/29 05:30:29;;;;;;;;;13.00;11.00;;;;;18.39;68.55;101283.59;4980674;28;46541;-71
2022/10/29 05:32:54;;;;;;;;;12.33;11.33;;;;;18.25;68.18;101244.06;4995393;28;45507;-71
2022/10/29 05:35:20;;;;;;;;;19.67;14.67;;;;;18.36;68.11;101267.81;4995875;28;45342;-72
2022/10/29 05:37:52;;;;;;;;;15.00;13.00;;;;;18.01;68.63;101212.78;4980466;28;45209;-70
2022/10/29 05:40:18;;;;;;;;;18.00;13.33;;;;;18.30;68.55;101255.09;4980134;28;46771;-71
2022/10/29 05:42:44;;;;;;;;;15.00;13.00;;;;;17.87;68.84;101192.91;4995066;28;45351;-70
2022/10/29 05:45:09;;;;;;;;;15.00;13.33;;;;;18.19;68.93;101252.84;4980144;28;45264;-71
2022/10/29 05:47:35;;;;;;;;;19.33;15.33;;;;;18.20;68.99;101251.81;4979020;28;45245;-72
2022/10/29 05:50:00;;;;;;;;;16.67;13.67;;;;;18.20;68.80;101262.56;4994998;28;47911;-70
2022/10/29 05:52:25;;;;;;;;;18.33;13.33;;;;;17.91;68.93;101218.44;4994901;28;45224;-70
2022/10/29 05:54:51;;;;;;;;;15.00;13.00;;;;;18.15;69.07;101254.22;4979501;28;45268;-70
2022/10/29 05:57:16;;;;;;;;;13.00;13.00;;;;;18.05;69.06;101226.75;4980140;28;45358;-71
2022/10/29 05:59:42;;;;;;;;;19.00;14.00;;;;;18.14;69.27;101261.47;4979707;28;45645;-71
2022/10/29 06:02:08;;;;;;;;;17.00;15.33;;;;;18.15;69.07;101243.44;4979696;28;45500;-70
2022/10/29 06:04:34;;;;;;;;;11.00;10.67;;;;;18.04;68.99;101230.44;4979608;28;45544;-71
2022/10/29 06:07:00;;;;;;;;;13.67;11.67;;;;;18.06;69.12;101223.03;4979699;28;45338;-70
2022/10/29 06:09:25;;;;;;;;;13.67;12.67;;;;;18.22;68.92;101244.44;4979494;28;45566;-73
2022/10/29 06:11:50;;;;;;;;;14.33;11.33;;;;;18.21;69.03;101248.94;4979014;28;62797;-71
2022/10/29 06:14:15;;;;;;;;;12.67;12.67;;;;;18.09;68.99;101223.50;4980302;28;45223;-72
2022/10/29 06:16:41;;;;;;;;;17.33;16.00;;;;;18.08;69.06;101229.91;4980457;28;45499;-72
2022/10/29 06:19:06;;;;;;;;;14.00;13.00;;;;;18.06;68.93;101218.47;4979743;28;45453;-70
2022/10/29 06:21:32;;;;;;;;;14.33;13.33;;;;;18.16;69.07;101234.38;4979387;28;45453;-71
2022/10/29 06:23:57;;;;;;;;;13.00;11.67;;;;;18.15;69.07;101219.22;4979674;28;45379;-73
2022/10/29 06:26:22;;;;;;;;;11.67;10.33;;;;;18.06;69.06;101204.19;4979624;28;45389;-71
2022/10/29 06:28:48;;;;;;;;;12.33;12.33;;;;;18.19;68.88;101236.69;4979413;28;46072;-72
2022/10/29 06:31:13;;;;;;;;;15.00;12.33;;;;;17.84;69.02;101187.91;4979265;28;45298;-70
2022/10/29 06:33:38;;;;;;;;;13.67;11.33;;;;;18.16;68.51;101247.81;4979401;28;45413;-74
2022/10/29 06:36:04;;;;;;;;;10.00;8.33;;;;;18.12;68.43;101252.72;4979678;28;45283;-71
2022/10/29 06:38:29;;;;;;;;;21.00;15.67;;;;;17.97;68.58;101229.47;4978866;28;46325;-70
2022/10/29 06:40:55;;;;;;;;;12.67;12.67;;;;;18.21;68.10;101257.00;4978534;28;45524;-72
2022/10/29 06:43:20;;;;;;;;;12.00;12.00;;;;;18.06;68.21;101212.25;4979393;28;45292;-71
2022/10/29 06:45:48;;;;;;;;;17.33;14.67;;;;;18.20;68.21;101244.56;4979011;28;45560;-72
2022/10/29 06:48:14;;;;;;;;;12.67;11.33;;;;;18.32;68.37;101265.69;4979045;28;45829;-71
2022/10/29 06:50:39;;;;;;;;;12.33;9.00;;;;;18.11;68.40;101236.78;4977879;28;45743;-73
2022/10/29 06:53:08;;;;;;;;;14.33;12.33;;;;;17.65;67.69;101177.59;4979881;28;45479;-69
2022/10/29 06:55:34;;;;;;;;;11.67;11.67;;;;;17.04;68.16;101077.25;4978378;28;45439;-74
2022/10/29 06:58:01;;;;;;;;;16.00;14.33;;;;;18.29;68.00;101277.66;4978721;28;45811;-73
2022/10/29 07:00:28;;;;;;;;;15.00;12.33;;;;;18.29;68.15;101272.28;4978746;28;45528;-71
2022/10/29 07:02:54;;;;;;;;;15.00;13.33;;;;;18.34;68.27;101275.25;4978621;28;45297;-73
2022/10/29 07:05:20;;;;;;;;;15.00;11.33;;;;;18.05;67.83;101216.81;4994038;28;45294;-71
2022/10/29 07:07:45;;;;;;;;;15.33;13.67;;;;;18.12;67.71;101211.53;4978435;28;45586;-71
2022/10/29 07:10:10;;;;;;;;;15.00;11.00;;;;;18.38;67.29;101246.94;4978523;28;45305;-71
2022/10/29 07:12:42;;;;;;;;;11.00;10.33;;;;;18.09;67.28;101201.13;4978442;28;48892;-74
2022/10/29 07:15:09;;;;;;;;;13.00;12.33;;;;;18.32;66.84;101241.47;4979044;28;45546;-72
2022/10/29 07:17:34;;;;;;;;;10.67;10.33;;;;;18.45;66.38;101257.84;4979186;28;46647;-71
2022/10/29 07:19:59;;;;;;;;;12.00;10.67;;;;;18.36;66.32;101234.69;4978919;28;45287;-71
2022/10/29 07:22:25;;;;;;;;;13.67;11.67;;;;;18.42;66.19;101245.59;4978748;28;45275;-72
2022/10/29 07:24:50;;;;;;;;;12.00;11.33;;;;;18.41;65.62;101226.88;4978924;28;45412;-74
2022/10/29 07:27:15;;;;;;;;;14.00;11.33;;;;;18.24;65.67;101199.31;4976796;28;46235;-72
2022/10/29 07:29:41;;;;;;;;;11.33;9.00;;;;;18.30;65.44;101203.13;4978869;28;45498;-73
2022/10/29 07:32:06;;;;;;;;;9.00;9.00;;;;;18.50;65.59;101237.41;4993634;28;45311;-70
2022/10/29 07:34:32;;;;;;;;;15.67;14.33;;;;;18.46;65.40;101222.66;4978623;28;45508;-73
2022/10/29 07:36:57;;;;;;;;;14.00;12.33;;;;;18.25;65.56;101187.53;4978096;28;46528;-72
2022/10/29 07:39:22;;;;;;;;;11.00;10.00;;;;;18.44;65.39;101222.00;4977104;28;45412;-72
2022/10/29 07:41:48;;;;;;;;;9.67;8.33;;;;;18.62;65.34;101236.94;4978268;28;45335;-72
2022/10/29 07:44:13;;;;;;;;;14.67;12.33;;;;;18.66;65.17;101235.59;4978818;28;45251;-71
2022/10/29 07:46:38;;;;;;;;;13.33;10.33;;;;;18.09;65.31;101134.69;4978101;28;63136;-72
2022/10/29 07:49:04;;;;;;;;;14.33;12.00;;;;;18.32;64.90;101160.72;4978444;28;45223;-73
2022/10/29 07:51:29;;;;;;;;;14.00;12.67;;;;;18.83;64.40;101218.25;4979377;28;45769;-70
2022/10/29 07:53:54;;;;;;;;;13.33;12.00;;;;;19.01;64.08;101226.75;4978953;28;45482;-73
2022/10/29 07:56:20;;;;;;;;;14.67;11.67;;;;;19.06;63.90;101229.75;4978852;28;45232;-71
2022/10/29 07:58:45;;;;;;;;;14.33;12.33;;;;;19.25;63.43;101231.03;4994091;28;45459;-71
2022/10/29 08:01:10;;;;;;;;;11.00;8.67;;;;;19.36;63.50;101226.97;4978790;28;45366;-74
2022/10/29 08:03:36;;;;;;;;;11.67;10.00;;;;;19.49;62.73;101221.75;4978977;28;45481;-73
2022/10/29 08:06:01;;;;;;;;;13.67;11.00;;;;;19.20;61.66;101130.16;4979879;28;46503;-75
2022/10/29 08:08:27;;;;;;;;;15.00;13.67;;;;;20.19;60.70;101245.28;4994070;28;45538;-71
2022/10/29 08:10:52;;;;;;;;;13.67;12.67;;;;;20.36;59.77;101230.47;4992647;28;45265;-72
2022/10/29 08:13:17;;;;;;;;;16.33;13.00;;;;;20.96;58.76;101247.09;4978254;28;45239;-72
2022/10/29 08:15:45;;;;;;;;;15.67;13.33;;;;;21.21;56.88;101217.69;4976706;28;47321;-73
2022/10/29 08:18:15;;;;;;;;;13.33;13.33;;;;;21.61;56.18;101251.13;4976219;28;45410;-73
2022/10/29 08:20:41;;;;;;;;;13.00;13.00;;;;;21.38;55.92;101202.78;4992867;28;45295;-73
2022/10/29 08:23:07;;;;;;;;;14.67;14.00;;;;;21.79;55.65;101253.25;4977961;28;45450;-73
2022/10/29 08:25:32;;;;;;;;;13.33;13.33;;;;;22.01;55.50;101235.78;4976036;28;45935;-73
2022/10/29 08:28:02;;;;;;;;;15.33;13.67;;;;;21.91;54.03;101148.75;4992591;28;45290;-74
2022/10/29 08:30:28;;;;;;;;;17.33;15.33;;;;;22.47;53.30;101213.34;4993182;28;45423;-71
2022/10/29 08:32:54;;;;;;;;;11.67;11.67;;;;;22.88;53.87;101270.00;4977704;28;45357;-73
2022/10/29 08:35:19;;;;;;;;;15.67;14.33;;;;;22.39;52.69;101170.19;4977785;28;46660;-74
2022/10/29 08:37:45;;;;;;;;;15.00;12.33;;;;;22.96;52.51;101256.19;4978058;28;45287;-72
2022/10/29 08:40:35;;;;;;;;;14.00;12.67;;;;;22.45;52.59;101164.78;4976081;28;45696;-71
2022/10/29 08:43:06;;;;;;;;;13.33;12.33;;;;;23.01;52.62;101255.53;4977724;28;45998;-72
2022/10/29 08:45:45;;;;;;;;;23.67;15.00;;;;;23.01;51.91;101269.94;4977237;28;46148;-71
2022/10/29 08:48:18;;;;;;;;;15.67;13.67;;;;;23.14;52.00;101262.81;4977375;28;45395;-72
2022/10/29 08:50:48;;;;;;;;;13.33;13.00;;;;;23.31;51.24;101264.84;4977582;28;45342;-73
2022/10/29 08:53:19;;;;;;;;;17.67;15.67;;;;;23.36;51.49;101251.47;4992818;28;45655;-74
2022/10/29 08:55:45;;;;;;;;;15.67;15.33;;;;;21.67;51.12;100952.66;4976940;28;46298;-73
2022/10/29 08:58:16;;;;;;;;;16.67;13.67;;;;;23.61;50.66;101243.41;4977524;28;45497;-72
2022/10/29 09:00:42;;;;;;;;;16.00;13.67;;;;;23.81;49.97;101216.13;4978149;28;45482;-73
2022/10/29 09:03:11;;;;;;;;;19.00;16.00;;;;;24.63;49.09;101243.28;4993032;28;45342;-73
2022/10/29 09:05:49;;;;;;;;;13.67;10.33;;;;;25.20;47.50;101242.03;4981724;28;46006;-76
2022/10/29 09:08:37;;;;;;;;;16.33;12.67;;;;;25.27;46.73;101261.03;4981379;28;45199;-72
2022/10/29 09:11:32;;;;;;;;;14.33;12.33;;;;;25.00;47.00;101257.75;4980848;28;45399;-71
2022/10/29 09:14:19;;;;;;;;;20.33;16.00;;;;;24.65;47.72;101257.50;4981336;28;45480;-73
2022/10/29 09:16:57;;;;;;;;;12.33;12.33;;;;;24.26;48.68;101251.34;4979488;28;48427;-74
2022/10/29 09:19:47;;;;;;;;;17.67;13.67;;;;;23.69;48.81;101217.91;4996210;28;45460;-71
2022/10/29 09:22:30;;;;;;;;;15.33;11.67;;;;;22.91;49.87;101149.44;4981050;28;45397;-72
2022/10/29 09:24:58;;;;;;;;;14.67;13.67;;;;;23.47;50.10;101273.53;4980810;28;45202;-76
2022/10/29 09:27:36;;;;;;;;;15.33;12.33;;;;;23.21;50.31;101256.31;4980409;28;46432;-75
2022/10/29 09:30:13;;;;;;;;;10.67;10.67;;;;;22.45;50.18;101147.69;4980538;28;45420;-73
2022/10/29 09:33:17;;;;;;;;;13.67;11.67;;;;;22.94;50.99;101261.00;4981677;28;45417;-71
2022/10/29 09:35:46;;;;;;;;;13.33;9.67;;;;;21.99;50.48;101129.56;4981292;28;45412;-72
2022/10/29 09:38:21;;;;;;;;;7.00;7.00;;;;;22.61;51.35;101252.91;4980381;28;45872;-73
2022/10/29 09:40:46;;;;;;;;;13.00;13.00;;;;;22.52;50.96;101248.75;4995317;28;45548;-73
2022/10/29 09:43:21;;;;;;;;;14.67;10.33;;;;;22.50;51.30;101258.13;4995498;28;45557;-72
2022/10/29 09:45:59;;;;;;;;;13.33;12.33;;;;;22.53;51.48;101261.25;4980592;28;46484;-72
2022/10/29 09:48:51;;;;;;;;;12.33;11.33;;;;;22.10;51.24;101183.16;4979077;28;46603;-72
2022/10/29 09:51:23;;;;;;;;;11.33;11.33;;;;;22.63;50.77;101258.97;4966021;28;45476;-73
2022/10/29 09:53:50;;;;;;;;;12.33;11.00;;;;;22.64;50.73;101251.66;4979911;28;46053;-72
2022/10/29 09:56:15;;;;;;;;;14.00;11.67;;;;;22.67;51.33;101246.66;4980404;28;45252;-73
2022/10/29 09:58:45;;;;;;;;;6.67;3.67;;;;;22.59;50.61;101225.19;4994896;28;45493;-74
2022/10/29 10:01:12;;;;;;;;;16.67;15.67;;;;;22.00;50.69;101125.81;4995255;28;46282;-75
2022/10/29 10:03:44;;;;;;;;;11.67;10.33;;;;;22.54;51.14;101211.44;4996456;28;45303;-73
2022/10/29 10:06:12;;;;;;;;;13.00;12.00;;;;;22.75;51.40;101251.84;4981289;28;45284;-72
2022/10/29 10:09:04;;;;;;;;;12.67;12.00;;;;;22.80;50.76;101255.78;4978390;28;46308;-73
2022/10/29 10:11:37;;;;;;;;;15.67;12.33;;;;;22.31;49.93;101170.41;4979732;28;45413;-72
2022/10/29 10:14:15;;;;;;;;;12.33;12.33;;;;;22.80;50.77;101244.94;4979677;28;45528;-73
2022/10/29 10:16:41;;;;;;;;;16.33;11.67;;;;;22.16;50.39;101143.56;4978752;28;45766;-74
2022/10/29 10:19:28;;;;;;;;;12.00;11.33;;;;;22.14;50.12;101138.34;4978874;28;46918;-71
2022/10/29 10:22:01;;;;;;;;;15.33;11.33;;;;;22.31;50.52;101173.13;4981534;28;45337;-73
2022/10/29 10:24:45;;;;;;;;;12.50;11.50;;;;;22.62;50.89;101229.34;4980451;28;45375;-72
2022/10/29 10:27:30;;;;;;;;;16.00;11.00;;;;;22.67;50.38;101241.22;4980793;28;45441;-71
2022/10/29 10:30:11;;;;;;;;;16.00;13.00;;;;;22.51;50.56;101220.00;4978158;28;47866;-75
2022/10/29 10:32:37;;;;;;;;;13.67;12.67;;;;;22.63;50.89;101245.41;4979521;28;45318;-72
2022/10/29 10:35:20;;;;;;;;;13.33;12.00;;;;;22.22;51.13;101148.13;4995263;28;45275;-74
2022/10/29 10:37:46;;;;;;;;;12.67;11.67;;;;;22.76;50.40;101233.69;4994705;28;45556;-72
2022/10/29 10:40:23;;;;;;;;;13.33;13.33;;;;;22.48;50.41;101177.06;4979502;28;46561;-73
2022/10/29 10:42:52;;;;;;;;;13.67;13.33;;;;;22.64;50.56;101201.00;4979623;28;45366;-73
2022/10/29 10:45:29;;;;;;;;;12.67;12.67;;;;;22.36;50.05;101149.78;4979417;28;45291;-74
2022/10/29 10:47:57;;;;;;;;;14.33;12.00;;;;;22.81;50.25;101220.31;4979868;28;45384;-75
2022/10/29 10:50:27;;;;;;;;;11.67;11.67;;;;;22.82;50.46;101229.31;4979428;28;45639;-75
2022/10/29 10:52:54;;;;;;;;;16.67;12.00;;;;;21.96;50.17;101081.28;4979869;28;45523;-73
2022/10/29 10:55:33;;;;;;;;;15.50;14.50;;;;;22.79;50.24;101211.56;4979510;28;45341;-73
2022/10/29 10:58:05;;;;;;;;;14.00;12.67;;;;;22.76;50.19;101198.44;4979339;28;45504;-72
2022/10/29 11:00:42;;;;;;;;;11.33;10.33;;;;;22.29;50.61;101118.34;4977335;28;48925;-73
2022/10/29 11:03:07;;;;;;;;;12.67;12.00;;;;;22.84;50.00;101194.72;4978901;28;45343;-73
2022/10/29 11:05:56;;;;;;;;;13.67;13.00;;;;;22.81;50.14;101186.97;4978367;28;45239;-73
2022/10/29 11:08:32;;;;;;;;;14.33;13.67;;;;;22.24;50.04;101096.47;4994971;28;45304;-72
2022/10/29 11:11:05;;;;;;;;;15.67;13.67;;;;;22.38;50.29;101127.88;4995216;28;48916;-73
2022/10/29 11:13:32;;;;;;;;;13.00;11.67;;;;;22.62;50.23;101162.41;4978206;28;45373;-71
2022/10/29 11:16:16;;;;;;;;;13.67;13.67;;;;;22.80;50.80;101193.44;4979268;28;45353;-74
2022/10/29 11:19:22;;;;;;;;;19.00;12.67;;;;;22.76;50.52;101184.91;4979645;28;45436;-71
2022/10/29 11:22:18;;;;;;;;;15.67;13.00;;;;;22.84;50.79;101203.69;4969587;28;45899;-72